ADDS METAR Data INFO
IDs: Format: Raw Decoded Include TAF

Data at: 1017 UTC 14 Dec 2017

KW63 140955Z AUTO 22005KT 10SM CLR 01/M07 A2965 RMK AO1
KW63 140935Z AUTO 22006KT 10SM CLR 01/M07 A2964 RMK AO1
KW63 140915Z AUTO 22007KT 10SM CLR 01/M07 A2964 RMK AO1
KW63 140855Z AUTO 21005KT 10SM CLR 01/M07 A2963 RMK AO1
KW63 140835Z AUTO 21007KT 10SM CLR 01/M07 A2963 RMK AO1
KW63 140815Z AUTO 21006KT 10SM CLR 01/M07 A2963 RMK AO1
KW63 140755Z AUTO 21006KT 10SM CLR 02/M07 A2964 RMK AO1
KW63 140735Z AUTO 20007G14KT 10SM CLR 02/M07 A2964 RMK AO1
KW63 140715Z AUTO 21007KT 10SM CLR 02/M07 A2964 RMK AO1
KW63 140655Z AUTO 21008G15KT 10SM CLR 02/M07 A2964 RMK AO1
KW63 140635Z AUTO 21009G15KT 10SM CLR 02/M07 A2964 RMK AO1
KW63 140615Z AUTO 22008KT 10SM CLR 02/M07 A2965 RMK AO1
KW63 140555Z AUTO 21010G15KT 10SM CLR 02/M07 A2966 RMK AO1
KW63 140535Z AUTO 22008G15KT 10SM CLR 02/M07 A2966 RMK AO1
KW63 140515Z AUTO 21007G15KT 10SM CLR 02/M07 A2966 RMK AO1
KW63 140455Z AUTO 21009KT 10SM CLR 02/M08 A2967 RMK AO1
KW63 140435Z AUTO 20008G16KT 10SM CLR 02/M08 A2967 RMK AO1
KW63 140415Z AUTO 20009G15KT 10SM CLR 02/M08 A2968 RMK AO1
KW63 140355Z AUTO 20008G14KT 10SM CLR 02/M08 A2968 RMK AO1
KW63 140335Z AUTO 19008KT 10SM CLR 02/M08 A2969 RMK AO1
KW63 140315Z AUTO 21007KT 10SM CLR 02/M08 A2971 RMK AO1
KW63 140255Z AUTO 20009G14KT 10SM SCT100 02/M08 A2971 RMK AO1
KW63 140235Z AUTO 20008KT 10SM OVC100 03/M09 A2971 RMK AO1
KW63 140215Z AUTO 20007KT 10SM SCT040 OVC100 03/M09 A2971 RMK AO1
KW63 140155Z AUTO 19007KT 10SM OVC090 03/M09 A2971 RMK AO1
KW63 140135Z AUTO 20005KT 10SM OVC090 02/M09 A2973 RMK AO1
KW63 140115Z AUTO 16005KT 10SM OVC100 02/M09 A2972 RMK AO1
KW63 140055Z AUTO 20006KT 10SM SCT095 OVC110 02/M10 A2976 RMK AO1
KW63 140035Z AUTO 18005KT 10SM SCT095 BKN120 02/M10 A2975 RMK AO1
KW63 140015Z AUTO 18004KT 10SM CLR 01/M10 A2976 RMK AO1
KW63 132355Z AUTO 17005KT 10SM SCT070 01/M11 A2976 RMK AO1
KW63 132335Z AUTO 17003KT 10SM OVC070 01/M10 A2977 RMK AO1
KW63 132315Z AUTO 17003KT 10SM BKN070 01/M10 A2978 RMK AO1
KW63 132255Z AUTO 17003KT 10SM CLR 01/M11 A2979 RMK AO1
KW63 132235Z AUTO 17003KT 10SM CLR 02/M11 A2978 RMK AO1
KW63 132215Z AUTO 20004KT 10SM CLR 02/M11 A2980 RMK AO1
KW63 132155Z AUTO 20004KT 10SM CLR 03/M11 A2980 RMK AO1
KW63 132135Z AUTO 21007G14KT 10SM CLR 03/M11 A2981 RMK AO1
KW63 132115Z AUTO 21007G14KT 10SM CLR 04/M11 A2981 RMK AO1
KW63 132055Z AUTO 21010G15KT 10SM CLR 04/M11 A2982 RMK AO1
KW63 132035Z AUTO 23008KT 10SM CLR 04/M11 A2983 RMK AO1
KW63 132015Z AUTO 23009KT 10SM CLR 03/M12 A2984 RMK AO1
KW63 131955Z AUTO 23006KT 10SM CLR 03/M12 A2986 RMK AO1
KW63 131935Z AUTO 23009G14KT 10SM CLR 03/M13 A2986 RMK AO1
KW63 131915Z AUTO 24010G15KT 10SM CLR 03/M13 A2986 RMK AO1
KW63 131855Z AUTO 23011G15KT 10SM CLR 03/M13 A2987 RMK AO1
KW63 131835Z AUTO 25009KT 10SM CLR 02/M13 A2987 RMK AO1
KW63 131815Z AUTO 23012G16KT 10SM CLR 02/M13 A2988 RMK AO1
KW63 131755Z AUTO 25009G17KT 10SM CLR 02/M13 A2989 RMK AO1
KW63 131735Z AUTO 26008KT 10SM CLR 02/M14 A2990 RMK AO1
KW63 131715Z AUTO 28007G16KT 10SM CLR 01/M15 A2991 RMK AO1
KW63 131655Z AUTO 25008G14KT 10SM CLR 01/M15 A2992 RMK AO1
KW63 131635Z AUTO 27010G15KT 230V290 10SM CLR 00/M15 A2993 RMK AO1
KW63 131615Z AUTO 25010G16KT 10SM CLR 00/M15 A2995 RMK AO1
KW63 131555Z AUTO 26008KT 10SM CLR 00/M15 A2996 RMK AO1
KW63 131535Z AUTO 27008KT 230V320 10SM CLR 00/M15 A2996 RMK AO1
KW63 131515Z AUTO 26009G16KT 10SM CLR 00/M15 A2996 RMK AO1
KW63 131455Z AUTO 29009KT 10SM CLR M01/M14 A2996 RMK AO1
KW63 131435Z AUTO 27007G14KT 230V300 10SM CLR M01/M14 A2996 RMK AO1
KW63 131415Z AUTO 26008KT 220V280 10SM CLR M01/M13 A2995 RMK AO1
KW63 131355Z AUTO 25007KT 10SM CLR M02/M13 A2995 RMK AO1
KW63 131335Z AUTO 26005KT 10SM CLR M03/M13 A2995 RMK AO1
KW63 131315Z AUTO 25005KT 10SM CLR M03/M13 A2995 RMK AO1
KW63 131255Z AUTO 25003KT 10SM CLR M05/M13 A2994 RMK AO1
KW63 131235Z AUTO 25003KT 10SM CLR M05/M13 A2994 RMK AO1
KW63 131215Z AUTO 22003KT 10SM CLR M06/M12 A2994 RMK AO1
KW63 131155Z AUTO 24003KT 10SM SCT043 SCT049 M05/M12 A2993 RMK AO1
KW63 131135Z AUTO 26003KT 10SM BKN042 BKN050 M05/M12 A2991 RMK AO1
KW63 131115Z AUTO 26003KT 10SM SCT041 BKN050 OVC055 M04/M12 A2991 RMK AO1
KW63 131055Z AUTO 00000KT 10SM SCT048 BKN055 M05/M11 A2991 RMK AO1
KW63 131035Z AUTO 20003KT 10SM SCT047 SCT055 M05/M11 A2990 RMK AO1
KW63 131015Z AUTO 24004KT 10SM CLR M05/M12 A2989 RMK AO1
KW63 130955Z AUTO 21003KT 10SM CLR M06/M11 A2988 RMK AO1
KW63 130935Z AUTO 00000KT 10SM CLR M05/M12 A2986 RMK AO1
KW63 130915Z AUTO 00000KT 10SM CLR M05/M11 A2986 RMK AO1
KW63 130855Z AUTO 00000KT 10SM CLR M05/M11 A2986 RMK AO1
KW63 130835Z AUTO 00000KT 10SM CLR M04/M12 A2985 RMK AO1
KW63 130815Z AUTO 00000KT 10SM SCT048 M03/M13 A2984 RMK AO1
KW63 130755Z AUTO 29003KT 10SM BKN048 BKN060 M03/M13 A2984 RMK AO1
KW63 130735Z AUTO 29005KT 10SM SCT060 M03/M13 A2984 RMK AO1
KW63 130715Z AUTO 30005KT 10SM SCT060 M03/M13 A2984 RMK AO1
KW63 130655Z AUTO 30005KT 10SM SCT060 M02/M13 A2983 RMK AO1
KW63 130635Z AUTO 30010G18KT 270V340 10SM CLR M02/M13 A2982 RMK AO1
KW63 130615Z AUTO 30011G17KT 10SM SCT045 SCT050 M02/M12 A2981 RMK AO1
KW63 130555Z AUTO 31009G15KT 10SM OVC050 M02/M12 A2981 RMK AO1
KW63 130535Z AUTO 30010G17KT 10SM OVC050 M02/M12 A2981 RMK AO1
KW63 130515Z AUTO 31009KT 10SM BKN050 M02/M12 A2981 RMK AO1
KW63 130455Z AUTO 30009KT 10SM SCT050 BKN065 M02/M13 A2980 RMK AO1
KW63 130435Z AUTO 30008G14KT 10SM SCT065 M01/M13 A2980 RMK AO1
KW63 130415Z AUTO 30007G16KT 10SM BKN065 M01/M14 A2980 RMK AO1
KW63 130355Z AUTO 31010G21KT 270V330 10SM SCT065 M01/M14 A2980 RMK AO1
KW63 130335Z AUTO 30011G21KT 270V330 10SM SCT049 M01/M12 A2979 RMK AO1
KW63 130315Z AUTO 31016G22KT 10SM SCT055 SCT070 M01/M12 A2979 RMK AO1
KW63 130255Z AUTO 32009G18KT 290V350 10SM SCT055 00/M11 A2978 RMK AO1
KW63 130235Z AUTO 30010G19KT 10SM SCT048 SCT055 SCT065 00/M11 A2978 RMK AO1
KW63 130215Z AUTO 32015G24KT 10SM SCT048 BKN055 BKN065 00/M11 A2977 RMK AO1
KW63 130155Z AUTO 30010G24KT 280V350 10SM SCT050 BKN065 00/M10 A2977 RMK AO1
KW63 130135Z AUTO 32012G22KT 10SM BKN050 01/M09 A2976 RMK AO1
KW63 130115Z AUTO 31008KT 10SM SCT050 01/M08 A2975 RMK AO1
KW63 130055Z AUTO 30006KT 10SM SCT050 SCT090 01/M08 A2974 RMK AO1
KW63 130035Z AUTO 31009G20KT 10SM SCT090 01/M08 A2973 RMK AO1
KW63 130015Z AUTO 30015G23KT 10SM SCT070 BKN090 02/M07 A2972 RMK AO1
KW63 122355Z AUTO 32015G23KT 310V010 10SM BKN070 BKN080 OVC100 02/M06 A2970 RMK AO1
KW63 122335Z AUTO 31010G24KT 10SM SCT050 OVC080 03/M06 A2970 RMK AO1
KW63 122315Z AUTO 33013G24KT 10SM SCT046 BKN065 OVC085 04/M04 A2968 RMK AO1
KW63 122255Z AUTO 31012G18KT 270V340 10SM SCT050 OVC065 05/M05 A2966 RMK AO1
KW63 122235Z AUTO 28009G24KT 10SM OVC065 06/M05 A2965 RMK AO1